Accueil
METAR-TAF:

METAR-TAF

Aéroports :

Bauru, São Paulo, Brésil

latitude: 22-19S, longitude: 049-04W, altitude: 590 m

Observation

Le bulletin a été fait il y a 4 heures et 7 minutes, à 08:00 UTC
Vent 7 kt de nord-est
Température 21°C
Humidité 83%
Pression 1015 hPa
Visibilité 10 km ou plus
Nuages épars à une hauteur de 2000 ft
Nuages fragmentés à une hauteur de 10000 ft

METAR: SBBU 210800Z 05007KT 9999 SCT020 BKN100 21/18 Q1015

Heure: 10:07 (12:07 UTC)

Prévision

Le bulletin a été fait il y a 9 heures et 37 minutes, à 02:30 UTC
Prévision valable du 21 à 06 UTC au 21 à 18 UTC
Vent 8 kt de est
Visibilité 10 km ou plus
Quelques nuages à une hauteur de 4000 ft
Evoluant progressivement
du 21 à 12 UTC au 21 à 14 UTC
Vent 8 kt de nord/nord-est

TAF: SBBU 210230Z 2106/2118 08008KT 9999 FEW040 TN21/2108Z TX31/2118Z BECMG 2112/2114 03008KT RMK PDW

Observations et prévisions météorologiques de plus de 4000 aéroports (messages METAR et TAF).

Les stations disponibles sont représentées par des disques jaunes et rouges sur la carte.

Passer la souris dessus pour voir le nom de la station.

Cliquer dessus pour voir les observations et prévisions météorologiques.

Pour changer de carte: cliquez sur les boutons verts avec une croix noire pour zoomer, sur le bouton vert avec un tiret pour effectuer un zoom arrière, ou sur les flèches vertes pour les cartes adjacentes.


METAR-TAF: